カラチ の空港の天気 - METARとTAF

ジンナー国際空港(カラチ) ( OPKC / KHI ) - パキスタン Karachi
飛行場実況気象(Metar)
観測時間01/18 14:25 PKT (01/18 09:25 UTC)
風向・風速北東 9m/s
視程4000m
天気現象煙霧
なし
気温26℃
湿度18%
気圧1015hPa
METAROPKC 180925Z 05017KT 4000 HZ NSC 26/00 Q1015 TEMPO 05015G25KT
過去の天気等 Google飛行場航空写真 Wunderground天気予報

過去48時間のMETAR

飛行場予報(TAF)
発表時間: 1/18 08:30 PKT (1/18 03:30 UTC)
予報対象時間: 18日11時 PKT ~ 18日20時 PKT
風向・風速北東 4m/s 瞬間風速 9m/s
視程6,000m
なし
TAF OPKC 180330Z 1806/1815 05008G18KT 6000 NSC